Time;durP1;ratioP1;P1;durP2;ratioP2;P2;SDS_P1;SDS_P2;PMS_P1;PMS_P2;Temp;Humidity;BMP_temperature;BMP_pressure;BME280_temperature;BME280_humidity;BME280_pressure;Samples;Min_cycle;Max_cycle;Signal;HPM_P1;HPM_P2
2022/08/22 00:00:17;;;;;;;5.47;2.10;;;;;;;;;;5037601;28;20335;-14
2022/08/22 00:02:52;;;;;;;6.28;2.10;;;;;;;;;;5045242;28;20230;-15
2022/08/22 00:05:44;;;;;;;4.95;2.15;;;;;;;;;;5046698;28;20237;-14
2022/08/22 00:08:12;;;;;;;4.25;1.85;;;;;;;;;;5052291;28;20223;-14
2022/08/22 00:10:48;;;;;;;5.93;1.92;;;;;;;;;;5051976;28;20732;-15
2022/08/22 00:13:20;;;;;;;8.23;2.15;;;;;;;;;;5049451;28;20234;-14
2022/08/22 00:15:50;;;;;;;6.50;2.38;;;;;;;;;;5052056;28;20222;-15
2022/08/22 00:18:18;;;;;;;11.25;2.30;;;;;;;;;;5052195;28;20241;-14
2022/08/22 00:20:48;;;;;;;5.25;2.05;;;;;;;;;;5046002;28;20233;-15
2022/08/22 00:23:17;;;;;;;4.65;1.88;;;;;;;;;;5051848;28;20293;-15
2022/08/22 00:25:47;;;;;;;6.10;2.42;;;;;;;;;;5051714;28;20252;-14
2022/08/22 00:28:15;;;;;;;7.22;2.40;;;;;;;;;;5046622;28;20226;-15
2022/08/22 00:30:45;;;;;;;7.30;2.20;;;;;;;;;;5047991;28;20237;-15
2022/08/22 00:33:14;;;;;;;5.32;2.10;;;;;;;;;;5051800;28;20620;-15
2022/08/22 00:35:43;;;;;;;4.82;2.22;;;;;;;;;;5051763;28;20237;-15
2022/08/22 00:38:14;;;;;;;5.85;2.45;;;;;;;;;;5052244;28;20242;-14
2022/08/22 00:40:45;;;;;;;5.35;1.92;;;;;;;;;;5050845;28;20241;-15
2022/08/22 00:43:18;;;;;;;6.68;2.53;;;;;;;;;;5043447;28;20233;-14
2022/08/22 00:45:54;;;;;;;6.65;2.22;;;;;;;;;;5050331;28;20249;-15
2022/08/22 00:48:35;;;;;;;6.28;2.63;;;;;;;;;;5047546;28;20273;-15
2022/08/22 00:51:32;;;;;;;4.47;1.98;;;;;;;;;;5052165;28;20244;-14
2022/08/22 00:54:03;;;;;;;8.57;2.28;;;;;;;;;;5026217;28;20231;-15
2022/08/22 00:56:51;;;;;;;5.28;2.10;;;;;;;;;;5032963;28;20227;-14
2022/08/22 00:59:26;;;;;;;4.55;2.00;;;;;;;;;;5042781;28;20230;-14
2022/08/22 01:01:56;;;;;;;4.43;2.00;;;;;;;;;;5046215;28;20247;-14
2022/08/22 01:04:32;;;;;;;6.97;2.45;;;;;;;;;;5048744;28;20234;-14
2022/08/22 01:07:03;;;;;;;5.18;2.53;;;;;;;;;;5051972;28;20321;-15
2022/08/22 01:09:36;;;;;;;6.57;2.13;;;;;;;;;;5051862;28;20230;-14
2022/08/22 01:12:08;;;;;;;8.10;2.42;;;;;;;;;;5050973;28;20226;-15
2022/08/22 01:14:37;;;;;;;6.70;2.20;;;;;;;;;;5051396;28;20709;-14
2022/08/22 01:17:16;;;;;;;8.65;2.38;;;;;;;;;;5048974;28;20226;-14
2022/08/22 01:19:57;;;;;;;6.63;2.25;;;;;;;;;;5044095;28;20230;-14
2022/08/22 01:22:34;;;;;;;4.10;1.92;;;;;;;;;;5045769;28;20241;-15
2022/08/22 01:25:20;;;;;;;6.28;2.28;;;;;;;;;;5050927;28;20237;-14
2022/08/22 01:28:11;;;;;;;7.55;2.13;;;;;;;;;;5046463;28;20238;-14
2022/08/22 01:30:48;;;;;;;4.40;1.98;;;;;;;;;;5049621;28;20230;-14
2022/08/22 01:33:34;;;;;;;5.03;2.17;;;;;;;;;;5039079;28;20237;-14
2022/08/22 01:36:19;;;;;;;5.03;2.25;;;;;;;;;;5051304;28;20237;-14
2022/08/22 01:39:01;;;;;;;8.35;2.40;;;;;;;;;;5042751;28;20234;-14
2022/08/22 01:41:33;;;;;;;5.63;2.00;;;;;;;;;;5049545;28;20245;-14
2022/08/22 01:44:15;;;;;;;5.82;2.33;;;;;;;;;;5051423;28;20233;-15
2022/08/22 01:46:48;;;;;;;6.40;2.33;;;;;;;;;;5050030;28;20232;-14
2022/08/22 01:49:16;;;;;;;6.72;2.38;;;;;;;;;;5050228;28;20241;-15
2022/08/22 01:51:45;;;;;;;5.78;2.00;;;;;;;;;;5051156;28;20230;-14
2022/08/22 01:54:14;;;;;;;6.45;2.10;;;;;;;;;;5050725;28;20706;-14
2022/08/22 01:56:42;;;;;;;6.65;2.50;;;;;;;;;;5048017;28;20233;-15
2022/08/22 01:59:10;;;;;;;8.15;2.60;;;;;;;;;;5040908;28;20222;-15
2022/08/22 02:01:42;;;;;;;5.50;2.25;;;;;;;;;;5046835;28;20231;-14
2022/08/22 02:04:10;;;;;;;6.43;2.25;;;;;;;;;;5042753;28;20237;-16
2022/08/22 02:06:40;;;;;;;4.28;2.10;;;;;;;;;;5050587;28;20227;-15
2022/08/22 02:09:09;;;;;;;7.10;2.17;;;;;;;;;;5051108;28;20230;-14
2022/08/22 02:11:43;;;;;;;5.30;2.40;;;;;;;;;;5050191;28;20662;-14
2022/08/22 02:14:16;;;;;;;7.30;2.42;;;;;;;;;;5037344;28;20260;-14
2022/08/22 02:16:44;;;;;;;4.85;1.77;;;;;;;;;;5050158;28;20780;-14
2022/08/22 02:19:25;;;;;;;7.40;2.33;;;;;;;;;;5037133;28;20234;-15
2022/08/22 02:21:54;;;;;;;7.32;2.58;;;;;;;;;;5059908;22;20239;-13
2022/08/22 02:24:24;;;;;;;4.88;2.40;;;;;;;;;;5051259;28;20724;-13
2022/08/22 02:27:02;;;;;;;7.28;2.97;;;;;;;;;;5050602;28;20230;-13
2022/08/22 02:29:32;;;;;;;6.82;2.45;;;;;;;;;;5049867;28;21103;-13
2022/08/22 02:32:00;;;;;;;9.25;2.72;;;;;;;;;;5051290;28;20234;-13
2022/08/22 02:34:29;;;;;;;6.65;2.53;;;;;;;;;;5042575;28;20225;-13
2022/08/22 02:37:02;;;;;;;7.50;2.22;;;;;;;;;;5044678;28;20234;-13
2022/08/22 02:39:32;;;;;;;6.63;2.35;;;;;;;;;;5040103;28;20658;-13
2022/08/22 02:42:02;;;;;;;9.40;2.70;;;;;;;;;;5051268;28;20228;-13
2022/08/22 02:44:30;;;;;;;7.00;2.47;;;;;;;;;;5050317;28;20231;-13
2022/08/22 02:47:00;;;;;;;8.45;2.33;;;;;;;;;;5046970;28;20226;-13
2022/08/22 02:49:30;;;;;;;5.18;2.25;;;;;;;;;;5038164;28;20285;-13
2022/08/22 02:52:02;;;;;;;4.40;2.10;;;;;;;;;;5050739;28;20229;-13
2022/08/22 02:54:30;;;;;;;5.38;2.50;;;;;;;;;;5050660;28;20224;-13
2022/08/22 02:57:00;;;;;;;8.50;2.80;;;;;;;;;;5050663;28;20234;-13
2022/08/22 02:59:33;;;;;;;10.75;3.25;;;;;;;;;;5038851;28;20235;-13
2022/08/22 03:02:15;;;;;;;6.72;2.55;;;;;;;;;;5044359;28;20269;-13
2022/08/22 03:04:46;;;;;;;5.35;2.42;;;;;;;;;;5044267;28;20771;-13
2022/08/22 03:07:23;;;;;;;6.70;2.47;;;;;;;;;;5050553;28;20226;-13
2022/08/22 03:09:51;;;;;;;6.60;2.83;;;;;;;;;;5051330;28;20248;-13
2022/08/22 03:12:21;;;;;;;7.72;2.45;;;;;;;;;;5042602;28;20237;-13
2022/08/22 03:14:54;;;;;;;5.07;2.40;;;;;;;;;;5039144;28;20230;-13
2022/08/22 03:17:23;;;;;;;10.93;2.92;;;;;;;;;;5048165;28;20240;-13
2022/08/22 03:19:53;;;;;;;6.97;2.55;;;;;;;;;;5042409;28;20230;-13
2022/08/22 03:22:22;;;;;;;6.07;1.95;;;;;;;;;;5033201;28;20243;-13
2022/08/22 03:24:50;;;;;;;5.88;2.22;;;;;;;;;;5021988;28;20732;-13
2022/08/22 03:27:19;;;;;;;4.75;2.50;;;;;;;;;;5030630;28;20234;-13
2022/08/22 03:30:02;;;;;;;9.07;2.78;;;;;;;;;;5030479;28;20238;-13
2022/08/22 03:32:44;;;;;;;6.25;2.20;;;;;;;;;;5021135;28;20227;-13
2022/08/22 03:35:12;;;;;;;6.40;2.53;;;;;;;;;;5023349;28;20227;-13
2022/08/22 03:37:40;;;;;;;6.68;2.85;;;;;;;;;;5017434;28;20241;-13
2022/08/22 03:40:20;;;;;;;6.97;2.95;;;;;;;;;;5030785;28;20231;-13
2022/08/22 03:43:17;;;;;;;8.23;2.35;;;;;;;;;;5030518;28;20702;-13
2022/08/22 03:46:14;;;;;;;6.85;2.80;;;;;;;;;;4974768;28;20606;-13
2022/08/22 03:48:59;;;;;;;5.78;2.25;;;;;;;;;;4940947;28;20316;-13
2022/08/22 03:51:41;;;;;;;7.50;2.40;;;;;;;;;;5019225;28;20244;-13
2022/08/22 03:54:22;;;;;;;4.85;2.55;;;;;;;;;;5027101;28;20690;-13
2022/08/22 03:57:07;;;;;;;6.00;2.42;;;;;;;;;;5027758;28;20230;-13
2022/08/22 03:59:39;;;;;;;7.13;2.38;;;;;;;;;;5020580;28;20235;-13
2022/08/22 04:02:21;;;;;;;7.78;2.63;;;;;;;;;;5024662;28;20231;-13
2022/08/22 04:05:18;;;;;;;6.90;2.38;;;;;;;;;;5026350;28;20258;-13
2022/08/22 04:07:56;;;;;;;6.43;2.40;;;;;;;;;;5030797;28;20239;-13
2022/08/22 04:10:28;;;;;;;6.00;2.53;;;;;;;;;;5017613;28;20235;-13
2022/08/22 04:13:00;;;;;;;5.13;2.58;;;;;;;;;;5026792;28;20714;-13
2022/08/22 04:15:32;;;;;;;5.32;2.78;;;;;;;;;;5020859;28;21012;-13
2022/08/22 04:18:07;;;;;;;5.93;2.53;;;;;;;;;;5032215;28;20643;-13
2022/08/22 04:20:40;;;;;;;9.35;2.88;;;;;;;;;;5014510;28;20238;-13
2022/08/22 04:23:22;;;;;;;6.30;2.60;;;;;;;;;;5026584;28;20246;-13
2022/08/22 04:25:52;;;;;;;7.03;2.63;;;;;;;;;;5019445;28;20219;-13
2022/08/22 04:28:20;;;;;;;6.68;2.75;;;;;;;;;;5028321;28;20235;-13
2022/08/22 04:30:51;;;;;;;12.10;2.60;;;;;;;;;;5020128;28;20303;-13
2022/08/22 04:33:19;;;;;;;8.23;2.70;;;;;;;;;;5031262;28;20226;-13
2022/08/22 04:35:51;;;;;;;8.02;2.50;;;;;;;;;;5031648;28;20238;-13
2022/08/22 04:38:19;;;;;;;6.93;2.78;;;;;;;;;;5021940;28;20227;-13
2022/08/22 04:40:49;;;;;;;6.20;2.65;;;;;;;;;;5032420;28;20235;-13
2022/08/22 04:43:18;;;;;;;6.70;2.35;;;;;;;;;;5032449;28;20249;-13
2022/08/22 04:45:46;;;;;;;4.88;2.40;;;;;;;;;;5026519;28;20238;-13
2022/08/22 04:48:15;;;;;;;8.48;2.80;;;;;;;;;;5025910;28;20271;-13
2022/08/22 04:50:43;;;;;;;6.55;2.42;;;;;;;;;;5029977;28;20257;-13
2022/08/22 04:53:18;;;;;;;5.85;2.47;;;;;;;;;;5031863;28;20561;-13
2022/08/22 04:55:48;;;;;;;3.97;2.17;;;;;;;;;;5030972;28;20717;-13
2022/08/22 04:58:21;;;;;;;6.10;2.40;;;;;;;;;;5025346;28;20289;-13
2022/08/22 05:00:52;;;;;;;8.82;2.28;;;;;;;;;;5030487;28;20739;-13
2022/08/22 05:03:19;;;;;;;7.50;2.60;;;;;;;;;;5030592;28;20227;-13
2022/08/22 05:05:46;;;;;;;4.80;2.53;;;;;;;;;;5029639;28;20231;-13
2022/08/22 05:08:16;;;;;;;7.25;2.65;;;;;;;;;;5030145;28;20234;-13
2022/08/22 05:10:45;;;;;;;7.32;2.85;;;;;;;;;;5022467;28;20313;-13
2022/08/22 05:13:15;;;;;;;5.25;2.47;;;;;;;;;;5024961;28;20230;-13
2022/08/22 05:15:43;;;;;;;5.72;2.33;;;;;;;;;;5024245;28;20231;-13
2022/08/22 05:18:12;;;;;;;6.85;2.42;;;;;;;;;;5020989;28;20227;-13
2022/08/22 05:20:40;;;;;;;6.78;2.55;;;;;;;;;;5027234;28;20223;-13
2022/08/22 05:23:09;;;;;;;4.20;2.30;;;;;;;;;;5030867;28;20333;-13
2022/08/22 05:25:44;;;;;;;5.18;2.50;;;;;;;;;;5029324;28;20230;-13
2022/08/22 05:28:13;;;;;;;8.18;2.60;;;;;;;;;;5029798;28;20239;-13
2022/08/22 05:30:40;;;;;;;5.70;2.38;;;;;;;;;;5026716;28;20333;-13
2022/08/22 05:33:12;;;;;;;5.78;2.40;;;;;;;;;;5026174;28;20684;-13
2022/08/22 05:35:40;;;;;;;3.70;2.25;;;;;;;;;;5030051;28;20318;-13
2022/08/22 05:38:15;;;;;;;5.55;2.30;;;;;;;;;;5032289;28;20234;-13
2022/08/22 05:40:43;;;;;;;6.70;2.40;;;;;;;;;;5031663;28;20234;-13
2022/08/22 05:43:11;;;;;;;5.95;2.72;;;;;;;;;;5032560;28;20241;-13
2022/08/22 05:45:38;;;;;;;8.02;2.70;;;;;;;;;;5031745;28;20239;-13
2022/08/22 05:48:06;;;;;;;4.65;2.45;;;;;;;;;;5031651;28;20380;-13
2022/08/22 05:50:35;;;;;;;6.90;2.60;;;;;;;;;;5020176;28;20231;-13
2022/08/22 05:53:05;;;;;;;5.78;2.72;;;;;;;;;;5030043;28;20230;-13
2022/08/22 05:55:33;;;;;;;5.20;2.47;;;;;;;;;;5031188;28;20309;-13
2022/08/22 05:58:09;;;;;;;7.40;2.67;;;;;;;;;;5026776;28;20227;-13
2022/08/22 06:00:37;;;;;;;7.72;2.40;;;;;;;;;;5021753;28;20706;-13
2022/08/22 06:03:07;;;;;;;8.65;2.63;;;;;;;;;;5019987;28;20242;-13
2022/08/22 06:05:37;;;;;;;7.63;2.47;;;;;;;;;;5020402;28;20245;-13
2022/08/22 06:08:06;;;;;;;8.85;2.60;;;;;;;;;;5027241;28;20235;-13
2022/08/22 06:10:36;;;;;;;11.75;3.20;;;;;;;;;;5031611;28;20242;-13
2022/08/22 06:13:05;;;;;;;9.05;3.13;;;;;;;;;;5030705;28;20666;-13
2022/08/22 06:15:39;;;;;;;9.35;2.80;;;;;;;;;;5019514;28;20234;-13
2022/08/22 06:18:09;;;;;;;6.90;2.55;;;;;;;;;;5025861;28;20613;-13
2022/08/22 06:20:38;;;;;;;12.23;2.42;;;;;;;;;;5031416;28;20229;-13
2022/08/22 06:23:06;;;;;;;4.70;2.30;;;;;;;;;;5024394;28;20247;-13
2022/08/22 06:25:34;;;;;;;5.88;2.53;;;;;;;;;;5024791;28;20253;-13
2022/08/22 06:28:02;;;;;;;7.53;2.83;;;;;;;;;;5016697;28;20246;-13
2022/08/22 06:30:30;;;;;;;5.90;3.13;;;;;;;;;;5026092;28;20230;-13
2022/08/22 06:32:59;;;;;;;8.38;2.90;;;;;;;;;;5022909;28;20242;-13
2022/08/22 06:35:28;;;;;;;6.70;3.40;;;;;;;;;;5026096;28;20373;-13
2022/08/22 06:37:57;;;;;;;16.65;3.40;;;;;;;;;;5024885;28;20707;-13
2022/08/22 06:40:25;;;;;;;5.97;2.95;;;;;;;;;;5019652;28;20232;-13
2022/08/22 06:42:53;;;;;;;7.07;3.08;;;;;;;;;;5027314;28;21090;-13
2022/08/22 06:45:21;;;;;;;8.80;3.55;;;;;;;;;;5030319;28;20238;-13
2022/08/22 06:47:49;;;;;;;6.70;2.88;;;;;;;;;;5023330;28;20222;-13
2022/08/22 06:50:20;;;;;;;7.07;3.08;;;;;;;;;;5022977;28;20912;-13
2022/08/22 06:52:49;;;;;;;8.60;3.17;;;;;;;;;;5020984;28;20227;-13
2022/08/22 06:55:18;;;;;;;7.10;3.13;;;;;;;;;;5029100;28;20326;-13
2022/08/22 06:57:52;;;;;;;7.68;3.25;;;;;;;;;;5025100;28;20231;-13
2022/08/22 07:00:19;;;;;;;8.02;3.17;;;;;;;;;;5022103;28;20211;-13
2022/08/22 07:02:48;;;;;;;7.07;3.10;;;;;;;;;;5022615;28;20230;-13
2022/08/22 07:05:16;;;;;;;9.07;3.42;;;;;;;;;;5031214;28;20234;-13
2022/08/22 07:07:44;;;;;;;12.90;3.50;;;;;;;;;;5024237;28;20233;-13
2022/08/22 07:10:11;;;;;;;6.40;2.70;;;;;;;;;;5024590;28;20648;-13
2022/08/22 07:12:45;;;;;;;5.00;2.72;;;;;;;;;;5027070;28;20231;-13
2022/08/22 07:15:17;;;;;;;9.50;3.22;;;;;;;;;;5029818;28;20245;-13
2022/08/22 07:17:49;;;;;;;9.45;3.42;;;;;;;;;;5029778;28;20230;-13
2022/08/22 07:20:21;;;;;;;7.10;3.50;;;;;;;;;;5029501;28;20233;-13
2022/08/22 07:22:51;;;;;;;7.75;3.47;;;;;;;;;;5026057;28;20254;-13
2022/08/22 07:25:23;;;;;;;10.45;3.67;;;;;;;;;;5030488;28;20342;-13
2022/08/22 07:27:58;;;;;;;12.10;3.95;;;;;;;;;;5026381;28;20230;-13
2022/08/22 07:30:27;;;;;;;11.65;3.50;;;;;;;;;;5026108;28;20717;-13
2022/08/22 07:32:55;;;;;;;8.80;3.70;;;;;;;;;;5022652;28;20238;-13
2022/08/22 07:35:43;;;;;;;10.82;4.15;;;;;;;;;;5022207;28;20242;-13
2022/08/22 07:38:21;;;;;;;11.95;3.97;;;;;;;;;;5029997;28;20234;-13
2022/08/22 07:40:50;;;;;;;9.23;3.90;;;;;;;;;;5025961;28;20234;-13
2022/08/22 07:43:21;;;;;;;10.07;4.05;;;;;;;;;;5029853;28;20240;-13
2022/08/22 07:45:49;;;;;;;10.00;3.50;;;;;;;;;;5029592;28;20238;-13
2022/08/22 07:48:20;;;;;;;10.57;3.80;;;;;;;;;;5020716;28;20230;-13
2022/08/22 07:51:00;;;;;;;13.02;4.22;;;;;;;;;;5028715;28;20770;-13
2022/08/22 07:53:34;;;;;;;13.55;4.03;;;;;;;;;;5027528;28;20709;-13
2022/08/22 07:56:01;;;;;;;12.93;3.53;;;;;;;;;;5030535;28;20230;-13
2022/08/22 07:58:32;;;;;;;18.80;4.18;;;;;;;;;;5021108;28;20261;-13
2022/08/22 08:01:00;;;;;;;8.98;3.85;;;;;;;;;;5030744;28;20264;-13
2022/08/22 08:03:28;;;;;;;10.30;3.60;;;;;;;;;;5025777;28;20233;-13
2022/08/22 08:05:55;;;;;;;15.15;3.90;;;;;;;;;;5024082;28;20245;-13
2022/08/22 08:08:24;;;;;;;8.38;3.45;;;;;;;;;;5027744;28;20230;-13
2022/08/22 08:10:53;;;;;;;12.20;4.15;;;;;;;;;;5023564;28;20710;-13
2022/08/22 08:13:21;;;;;;;9.63;3.42;;;;;;;;;;5029847;28;20706;-13
2022/08/22 08:15:50;;;;;;;11.82;3.33;;;;;;;;;;5030591;28;20227;-13
2022/08/22 08:18:20;;;;;;;6.07;3.22;;;;;;;;;;5028692;28;21024;-13
2022/08/22 08:20:49;;;;;;;9.30;3.80;;;;;;;;;;5024297;28;20235;-13
2022/08/22 08:23:18;;;;;;;13.07;3.55;;;;;;;;;;5027100;28;20242;-13
2022/08/22 08:25:54;;;;;;;8.60;3.35;;;;;;;;;;5032343;28;20236;-13
2022/08/22 08:28:33;;;;;;;10.77;3.35;;;;;;;;;;5032470;28;21196;-13
2022/08/22 08:31:07;;;;;;;10.60;3.47;;;;;;;;;;5030930;28;20239;-13
2022/08/22 08:33:35;;;;;;;6.20;2.90;;;;;;;;;;5032184;28;20234;-13
2022/08/22 08:36:03;;;;;;;7.85;3.28;;;;;;;;;;5037197;28;20271;-13
2022/08/22 08:38:31;;;;;;;8.65;3.47;;;;;;;;;;5032784;28;20687;-13
2022/08/22 08:41:03;;;;;;;9.27;3.20;;;;;;;;;;5032437;28;20699;-13
2022/08/22 08:43:35;;;;;;;8.00;3.00;;;;;;;;;;5019451;28;20241;-13
2022/08/22 08:46:33;;;;;;;8.95;2.80;;;;;;;;;;5025903;28;20243;-13
2022/08/22 08:49:14;;;;;;;7.28;3.05;;;;;;;;;;4996802;28;20228;-13
2022/08/22 08:51:49;;;;;;;9.93;3.10;;;;;;;;;;5022600;28;20238;-13
2022/08/22 08:54:21;;;;;;;9.68;2.90;;;;;;;;;;5032355;28;20232;-13
2022/08/22 08:56:51;;;;;;;6.65;2.90;;;;;;;;;;5028229;28;20262;-13
2022/08/22 08:59:25;;;;;;;10.82;3.15;;;;;;;;;;5039906;28;20238;-13
2022/08/22 09:02:08;;;;;;;7.32;2.45;;;;;;;;;;5030627;28;20955;-13
2022/08/22 09:04:58;;;;;;;9.35;2.85;;;;;;;;;;5014127;28;21193;-13
2022/08/22 09:07:33;;;;;;;6.30;2.90;;;;;;;;;;5023041;28;20234;-13
2022/08/22 09:10:15;;;;;;;8.00;2.50;;;;;;;;;;5031628;28;20254;-13
2022/08/22 09:12:47;;;;;;;8.15;3.08;;;;;;;;;;5024530;28;20269;-13
2022/08/22 09:15:39;;;;;;;9.73;2.90;;;;;;;;;;5031815;28;20226;-13
2022/08/22 09:18:25;;;;;;;8.80;2.72;;;;;;;;;;5020050;28;20707;-13
2022/08/22 09:21:20;;;;;;;7.47;2.08;;;;;;;;;;5025788;28;20837;-13
2022/08/22 09:24:16;;;;;;;6.95;2.53;;;;;;;;;;5007430;28;21070;-13
2022/08/22 09:26:47;;;;;;;5.75;2.40;;;;;;;;;;5022197;28;20238;-13
2022/08/22 09:29:31;;;;;;;8.07;3.00;;;;;;;;;;5031891;28;20261;-13
2022/08/22 09:32:03;;;;;;;8.85;2.67;;;;;;;;;;5025276;28;20342;-13
2022/08/22 09:34:32;;;;;;;4.80;2.20;;;;;;;;;;5030181;28;21071;-13
2022/08/22 09:37:05;;;;;;;7.60;2.58;;;;;;;;;;5022515;28;20334;-13
2022/08/22 09:39:34;;;;;;;6.30;2.58;;;;;;;;;;5031079;28;20269;-13
2022/08/22 09:42:05;;;;;;;5.35;2.33;;;;;;;;;;5031383;28;20234;-13
2022/08/22 09:44:37;;;;;;;9.05;2.88;;;;;;;;;;5031686;28;20289;-13
2022/08/22 09:47:07;;;;;;;5.15;2.20;;;;;;;;;;5029613;28;20235;-13
2022/08/22 09:49:39;;;;;;;7.25;2.60;;;;;;;;;;5032033;28;20227;-13
2022/08/22 09:52:09;;;;;;;5.25;2.08;;;;;;;;;;5022609;28;20451;-13
2022/08/22 09:54:43;;;;;;;4.63;2.33;;;;;;;;;;5015821;28;20257;-13
2022/08/22 09:57:23;;;;;;;11.13;2.63;;;;;;;;;;5019916;28;20634;-13
2022/08/22 09:59:55;;;;;;;12.90;3.00;;;;;;;;;;5029771;28;20245;-13
2022/08/22 10:02:27;;;;;;;9.77;2.53;;;;;;;;;;5026887;28;20234;-13
2022/08/22 10:04:57;;;;;;;7.63;2.83;;;;;;;;;;5028841;28;20352;-13
2022/08/22 10:07:35;;;;;;;7.57;2.42;;;;;;;;;;5030325;28;20261;-13
2022/08/22 10:10:05;;;;;;;6.75;2.28;;;;;;;;;;5026951;28;20235;-13
2022/08/22 10:12:36;;;;;;;7.72;2.50;;;;;;;;;;5029745;28;20231;-13
2022/08/22 10:15:06;;;;;;;9.25;2.75;;;;;;;;;;5024998;28;20333;-13
2022/08/22 10:17:35;;;;;;;5.88;2.53;;;;;;;;;;5022948;28;20237;-13
2022/08/22 10:20:09;;;;;;;7.65;3.03;;;;;;;;;;5023982;28;20261;-13
2022/08/22 10:22:39;;;;;;;9.57;2.58;;;;;;;;;;5023444;28;20249;-13
2022/08/22 10:25:24;;;;;;;9.55;2.63;;;;;;;;;;5026695;28;21018;-13
2022/08/22 10:28:06;;;;;;;8.38;2.70;;;;;;;;;;5024778;28;20242;-13
2022/08/22 10:30:39;;;;;;;9.25;2.67;;;;;;;;;;5025707;28;20244;-14
2022/08/22 10:33:08;;;;;;;10.15;3.00;;;;;;;;;;5019182;28;20249;-13
2022/08/22 10:35:39;;;;;;;7.57;2.90;;;;;;;;;;5024923;28;20326;-13
2022/08/22 10:38:08;;;;;;;10.88;2.78;;;;;;;;;;5020288;28;20231;-13
2022/08/22 10:40:37;;;;;;;9.40;2.78;;;;;;;;;;5027739;28;20246;-13
2022/08/22 10:43:08;;;;;;;9.38;2.85;;;;;;;;;;5022960;28;20249;-14
2022/08/22 10:45:38;;;;;;;9.23;2.70;;;;;;;;;;5024281;28;20231;-13
2022/08/22 10:48:24;;;;;;;16.02;3.28;;;;;;;;;;5025802;28;20231;-13
2022/08/22 10:50:52;;;;;;;12.23;3.50;;;;;;;;;;5026317;28;20300;-13
2022/08/22 10:53:32;;;;;;;14.40;3.42;;;;;;;;;;5028429;28;20285;-13
2022/08/22 10:56:07;;;;;;;10.45;2.60;;;;;;;;;;5027642;28;20313;-13
2022/08/22 10:58:36;;;;;;;13.15;2.92;;;;;;;;;;5023974;28;20286;-13
2022/08/22 11:01:06;;;;;;;6.15;2.28;;;;;;;;;;5023656;28;20239;-13
2022/08/22 11:03:56;;;;;;;4.82;2.70;;;;;;;;;;5025454;28;20233;-13
2022/08/22 11:06:25;;;;;;;6.20;2.72;;;;;;;;;;5024213;28;20246;-13
2022/08/22 11:08:59;;;;;;;6.78;2.28;;;;;;;;;;5028311;28;20241;-13
2022/08/22 11:11:40;;;;;;;8.02;2.50;;;;;;;;;;5026332;28;20718;-13
2022/08/22 11:14:14;;;;;;;8.18;2.05;;;;;;;;;;5027877;28;20714;-13
2022/08/22 11:16:45;;;;;;;6.38;2.53;;;;;;;;;;5022970;28;20234;-13
2022/08/22 11:19:14;;;;;;;5.95;2.10;;;;;;;;;;5027781;28;20702;-13
2022/08/22 11:21:45;;;;;;;6.32;2.03;;;;;;;;;;5021291;28;20664;-13
2022/08/22 11:24:17;;;;;;;12.80;2.97;;;;;;;;;;5021145;28;20623;-13
2022/08/22 11:27:03;;;;;;;8.57;2.33;;;;;;;;;;5028606;28;20329;-13
2022/08/22 11:29:38;;;;;;;7.03;2.92;;;;;;;;;;5030268;28;20230;-13
2022/08/22 11:32:11;;;;;;;11.25;3.00;;;;;;;;;;5023542;28;20266;-13
2022/08/22 11:34:43;;;;;;;7.15;2.53;;;;;;;;;;5022856;28;20226;-13
2022/08/22 11:37:16;;;;;;;6.03;2.75;;;;;;;;;;5023823;28;20273;-13
2022/08/22 11:39:45;;;;;;;7.00;2.63;;;;;;;;;;5016660;28;20241;-13
2022/08/22 11:42:14;;;;;;;6.50;2.38;;;;;;;;;;5030095;28;20346;-13
2022/08/22 11:44:51;;;;;;;7.38;2.50;;;;;;;;;;5024232;28;20234;-13
2022/08/22 11:47:19;;;;;;;7.57;2.63;;;;;;;;;;5020175;28;20246;-13
2022/08/22 11:49:55;;;;;;;5.07;2.13;;;;;;;;;;5028841;28;20226;-13
2022/08/22 11:52:24;;;;;;;3.63;2.10;;;;;;;;;;5029938;28;20690;-13
2022/08/22 11:54:55;;;;;;;5.80;2.13;;;;;;;;;;5029948;28;20235;-13
2022/08/22 11:57:25;;;;;;;5.10;2.22;;;;;;;;;;5027504;28;20231;-13
2022/08/22 11:59:59;;;;;;;8.48;2.28;;;;;;;;;;5017909;28;20239;-13
2022/08/22 12:02:28;;;;;;;5.30;2.35;;;;;;;;;;5024698;28;20227;-13
2022/08/22 12:04:58;;;;;;;6.50;2.22;;;;;;;;;;5015764;28;20709;-13
2022/08/22 12:07:26;;;;;;;3.20;2.03;;;;;;;;;;5029796;28;20720;-13
2022/08/22 12:09:55;;;;;;;8.18;2.63;;;;;;;;;;5030000;28;20269;-13
2022/08/22 12:12:26;;;;;;;4.38;2.28;;;;;;;;;;5029537;28;20245;-13
2022/08/22 12:14:59;;;;;;;4.22;2.13;;;;;;;;;;5028900;28;20227;-13
2022/08/22 12:17:44;;;;;;;5.15;2.08;;;;;;;;;;5028765;28;20258;-13
2022/08/22 12:20:35;;;;;;;5.50;2.55;;;;;;;;;;5005898;28;20262;-13
2022/08/22 12:23:16;;;;;;;5.45;2.30;;;;;;;;;;5029405;28;20576;-13
2022/08/22 12:25:48;;;;;;;4.30;1.85;;;;;;;;;;5029157;28;20234;-13
2022/08/22 12:28:18;;;;;;;3.97;2.03;;;;;;;;;;5023238;28;20816;-13
2022/08/22 12:30:49;;;;;;;6.40;2.35;;;;;;;;;;5016451;28;20301;-13
2022/08/22 12:33:34;;;;;;;5.13;1.90;;;;;;;;;;5019313;28;20235;-13
2022/08/22 12:36:04;;;;;;;3.88;1.90;;;;;;;;;;5021005;28;20227;-13
2022/08/22 12:38:39;;;;;;;6.20;2.20;;;;;;;;;;5036241;28;20261;-13
2022/08/22 12:41:18;;;;;;;5.05;2.05;;;;;;;;;;5033729;28;20289;-13
2022/08/22 12:44:02;;;;;;;4.93;2.10;;;;;;;;;;5032761;28;20239;-13
2022/08/22 12:46:36;;;;;;;3.33;1.63;;;;;;;;;;5031870;28;20226;-13
2022/08/22 12:49:18;;;;;;;6.25;2.38;;;;;;;;;;5019518;28;20240;-13
2022/08/22 12:51:49;;;;;;;5.40;1.90;;;;;;;;;;5041400;28;20238;-13
2022/08/22 12:54:40;;;;;;;7.47;2.13;;;;;;;;;;5032697;28;20772;-13
2022/08/22 12:57:11;;;;;;;3.47;2.00;;;;;;;;;;5032794;28;20329;-13
2022/08/22 12:59:51;;;;;;;3.80;1.90;;;;;;;;;;5018726;28;20234;-13
2022/08/22 13:02:24;;;;;;;5.68;2.05;;;;;;;;;;5022679;28;20242;-13
2022/08/22 13:04:52;;;;;;;4.80;2.10;;;;;;;;;;5029637;28;20230;-13
2022/08/22 13:07:22;;;;;;;7.82;2.05;;;;;;;;;;5031561;28;20227;-13
2022/08/22 13:09:50;;;;;;;4.00;2.20;;;;;;;;;;5032000;28;20246;-13
2022/08/22 13:12:20;;;;;;;5.82;2.15;;;;;;;;;;5028043;28;20362;-13
2022/08/22 13:14:49;;;;;;;5.35;2.08;;;;;;;;;;5032156;28;20235;-13
2022/08/22 13:17:17;;;;;;;4.05;2.15;;;;;;;;;;5031706;28;20321;-13
2022/08/22 13:20:08;;;;;;;5.32;1.90;;;;;;;;;;5031976;28;20230;-13
2022/08/22 13:22:38;;;;;;;5.40;2.03;;;;;;;;;;5027470;28;20820;-13
2022/08/22 13:25:06;;;;;;;7.03;2.10;;;;;;;;;;5028509;28;20275;-13
2022/08/22 13:27:37;;;;;;;5.10;2.30;;;;;;;;;;5026899;28;20231;-13
2022/08/22 13:30:17;;;;;;;4.03;2.00;;;;;;;;;;5018440;28;20244;-13
2022/08/22 13:32:45;;;;;;;4.97;2.50;;;;;;;;;;5030423;28;20622;-13
2022/08/22 13:35:20;;;;;;;4.28;2.42;;;;;;;;;;5031986;28;20226;-13
2022/08/22 13:37:51;;;;;;;4.25;1.90;;;;;;;;;;5018270;28;20712;-13
2022/08/22 13:40:21;;;;;;;6.13;2.28;;;;;;;;;;5032172;28;20223;-13
2022/08/22 13:42:50;;;;;;;5.65;2.17;;;;;;;;;;5031368;28;20255;-13
2022/08/22 13:45:21;;;;;;;4.72;2.00;;;;;;;;;;5031185;28;20230;-13
2022/08/22 13:47:50;;;;;;;4.60;2.00;;;;;;;;;;5030313;28;20238;-13
2022/08/22 13:50:19;;;;;;;5.10;2.30;;;;;;;;;;5028773;28;20242;-13
2022/08/22 13:52:47;;;;;;;8.05;2.20;;;;;;;;;;5023430;28;20819;-13
2022/08/22 13:55:24;;;;;;;5.03;2.10;;;;;;;;;;5025880;28;20956;-13
2022/08/22 13:57:58;;;;;;;7.15;1.92;;;;;;;;;;5028283;28;20620;-13
2022/08/22 14:00:52;;;;;;;5.85;2.20;;;;;;;;;;5025061;28;20238;-13
2022/08/22 14:03:24;;;;;;;6.95;2.15;;;;;;;;;;4981305;28;20294;-13
2022/08/22 14:05:56;;;;;;;6.95;2.25;;;;;;;;;;5022382;28;20230;-14
2022/08/22 14:08:44;;;;;;;5.60;2.22;;;;;;;;;;5024295;28;20990;-11
2022/08/22 14:11:12;;;;;;;5.18;2.10;;;;;;;;;;5023312;28;20313;-13
2022/08/22 14:13:41;;;;;;;7.30;2.28;;;;;;;;;;5023650;28;20262;-11
2022/08/22 14:16:10;;;;;;;5.47;2.30;;;;;;;;;;5029977;28;20667;-11
2022/08/22 14:18:41;;;;;;;4.22;2.05;;;;;;;;;;5024744;28;20234;-12
2022/08/22 14:21:18;;;;;;;5.70;2.33;;;;;;;;;;5025633;28;20319;-12
2022/08/22 14:23:46;;;;;;;9.05;2.47;;;;;;;;;;5027804;28;21188;-12
2022/08/22 14:26:22;;;;;;;9.43;2.25;;;;;;;;;;5024868;28;20690;-12
2022/08/22 14:28:59;;;;;;;4.78;1.98;;;;;;;;;;5023900;28;20230;-13
2022/08/22 14:31:27;;;;;;;7.57;2.10;;;;;;;;;;5022734;28;20260;-12
2022/08/22 14:33:56;;;;;;;6.20;1.85;;;;;;;;;;5023991;28;20322;-13
2022/08/22 14:36:25;;;;;;;4.90;1.90;;;;;;;;;;5024244;28;20243;-12
2022/08/22 14:38:55;;;;;;;3.13;2.03;;;;;;;;;;5027696;28;20239;-12
2022/08/22 14:41:24;;;;;;;6.43;1.83;;;;;;;;;;5023892;28;20230;-12
2022/08/22 14:43:52;;;;;;;5.15;1.80;;;;;;;;;;5026852;28;20246;-12
2022/08/22 14:46:21;;;;;;;4.00;1.90;;;;;;;;;;5022887;28;21051;-12
2022/08/22 14:49:04;;;;;;;3.72;1.77;;;;;;;;;;5025461;28;20289;-12
2022/08/22 14:51:32;;;;;;;4.40;1.90;;;;;;;;;;5019688;28;21049;-12
2022/08/22 14:54:08;;;;;;;6.68;2.33;;;;;;;;;;5025093;28;20235;-12
2022/08/22 14:56:40;;;;;;;4.20;1.75;;;;;;;;;;5018979;28;20246;-12
2022/08/22 14:59:08;;;;;;;5.68;2.17;;;;;;;;;;5028184;28;20733;-12
2022/08/22 15:01:50;;;;;;;6.35;1.90;;;;;;;;;;5023003;28;20330;-13
2022/08/22 15:04:21;;;;;;;4.50;2.15;;;;;;;;;;5021528;28;20349;-12
2022/08/22 15:06:52;;;;;;;4.25;1.60;;;;;;;;;;5021505;28;20701;-12
2022/08/22 15:09:26;;;;;;;5.20;2.17;;;;;;;;;;5023297;28;20239;-12
2022/08/22 15:11:53;;;;;;;7.05;2.38;;;;;;;;;;5019010;28;20234;-12
2022/08/22 15:14:23;;;;;;;11.73;1.58;;;;;;;;;;5018980;28;20235;-12